sensor_id;sensor_type;location;lat;lon;timestamp;pressure;altitude;pressure_sealevel;temperature;humidity
10940;BME280;5522;42.696;23.494;2024-01-27T00:02:14;53711.09;;;-139.68;100.00
10940;BME280;5522;42.696;23.494;2024-01-27T00:04:44;53699.03;;;-139.68;100.00
10940;BME280;5522;42.696;23.494;2024-01-27T00:07:11;53719.13;;;-139.68;100.00
10940;BME280;5522;42.696;23.494;2024-01-27T00:09:38;53707.06;;;-139.68;100.00
10940;BME280;5522;42.696;23.494;2024-01-27T00:12:08;53703.03;;;-139.68;100.00
10940;BME280;5522;42.696;23.494;2024-01-27T00:14:38;53717.13;;;-139.68;100.00
10940;BME280;5522;42.696;23.494;2024-01-27T00:17:05;53668.88;;;-139.68;100.00
10940;BME280;5522;42.696;23.494;2024-01-27T00:19:34;53703.03;;;-139.68;100.00
10940;BME280;5522;42.696;23.494;2024-01-27T00:22:01;53725.16;;;-139.68;100.00
10940;BME280;5522;42.696;23.494;2024-01-27T00:24:28;53701.03;;;-139.68;100.00
10940;BME280;5522;42.696;23.494;2024-01-27T00:26:55;53723.13;;;-139.68;100.00
10940;BME280;5522;42.696;23.494;2024-01-27T00:29:23;53709.06;;;-139.68;100.00
10940;BME280;5522;42.696;23.494;2024-01-27T00:31:50;53686.97;;;-139.68;100.00
10940;BME280;5522;42.696;23.494;2024-01-27T00:34:19;53707.06;;;-139.68;100.00
10940;BME280;5522;42.696;23.494;2024-01-27T00:36:46;53701.03;;;-139.68;100.00
10940;BME280;5522;42.696;23.494;2024-01-27T00:39:14;53705.06;;;-139.68;100.00
10940;BME280;5522;42.696;23.494;2024-01-27T00:41:41;53701.03;;;-139.68;100.00
10940;BME280;5522;42.696;23.494;2024-01-27T00:44:08;53703.03;;;-139.68;100.00
10940;BME280;5522;42.696;23.494;2024-01-27T00:46:40;53715.09;;;-139.68;100.00
10940;BME280;5522;42.696;23.494;2024-01-27T00:49:07;53707.06;;;-139.68;100.00
10940;BME280;5522;42.696;23.494;2024-01-27T00:51:33;53711.09;;;-139.68;100.00
10940;BME280;5522;42.696;23.494;2024-01-27T00:54:00;53747.25;;;-139.68;100.00
10940;BME280;5522;42.696;23.494;2024-01-27T00:56:27;53693.00;;;-139.68;100.00
10940;BME280;5522;42.696;23.494;2024-01-27T00:58:54;53753.28;;;-139.68;100.00
10940;BME280;5522;42.696;23.494;2024-01-27T01:06:51;53688.97;;;-139.68;100.00
10940;BME280;5522;42.696;23.494;2024-01-27T01:09:18;53729.16;;;-139.68;100.00
10940;BME280;5522;42.696;23.494;2024-01-27T01:11:45;53648.75;;;-139.68;100.00
10940;BME280;5522;42.696;23.494;2024-01-27T01:14:12;53733.19;;;-139.68;100.00
10940;BME280;5522;42.696;23.494;2024-01-27T01:16:39;53729.16;;;-139.68;100.00
10940;BME280;5522;42.696;23.494;2024-01-27T01:19:06;53697.00;;;-139.68;100.00
10940;BME280;5522;42.696;23.494;2024-01-27T01:21:33;53719.13;;;-139.68;100.00
10940;BME280;5522;42.696;23.494;2024-01-27T01:24:02;53699.03;;;-139.68;100.00
10940;BME280;5522;42.696;23.494;2024-01-27T01:26:29;53686.97;;;-139.68;100.00
10940;BME280;5522;42.696;23.494;2024-01-27T01:28:56;53705.06;;;-139.68;100.00
10940;BME280;5522;42.696;23.494;2024-01-27T01:31:23;53670.88;;;-139.68;100.00
10940;BME280;5522;42.696;23.494;2024-01-27T01:33:50;53666.84;;;-139.68;100.00
10940;BME280;5522;42.696;23.494;2024-01-27T01:36:17;53680.94;;;-139.68;100.00
10940;BME280;5522;42.696;23.494;2024-01-27T01:38:44;53717.13;;;-139.68;100.00
10940;BME280;5522;42.696;23.494;2024-01-27T01:41:12;53680.94;;;-139.68;100.00
10940;BME280;5522;42.696;23.494;2024-01-27T01:43:39;53705.06;;;-139.68;100.00
10940;BME280;5522;42.696;23.494;2024-01-27T01:46:06;53699.03;;;-139.68;100.00
10940;BME280;5522;42.696;23.494;2024-01-27T01:48:36;53678.91;;;-139.68;100.00
10940;BME280;5522;42.696;23.494;2024-01-27T01:51:03;53686.97;;;-139.68;100.00
10940;BME280;5522;42.696;23.494;2024-01-27T01:53:31;53682.94;;;-139.68;100.00
10940;BME280;5522;42.696;23.494;2024-01-27T01:55:58;53680.94;;;-139.68;100.00
10940;BME280;5522;42.696;23.494;2024-01-27T01:58:26;53711.09;;;-139.68;100.00
10940;BME280;5522;42.696;23.494;2024-01-27T02:00:59;53686.97;;;-139.68;100.00
10940;BME280;5522;42.696;23.494;2024-01-27T02:03:26;53688.97;;;-139.68;100.00
10940;BME280;5522;42.696;23.494;2024-01-27T02:05:54;53721.13;;;-139.68;100.00
10940;BME280;5522;42.696;23.494;2024-01-27T02:08:21;53715.09;;;-139.68;100.00
10940;BME280;5522;42.696;23.494;2024-01-27T02:10:48;53739.22;;;-139.68;100.00
10940;BME280;5522;42.696;23.494;2024-01-27T02:13:16;53680.94;;;-139.68;100.00
10940;BME280;5522;42.696;23.494;2024-01-27T02:15:46;53680.94;;;-139.68;100.00
10940;BME280;5522;42.696;23.494;2024-01-27T02:18:13;53723.13;;;-139.68;100.00
10940;BME280;5522;42.696;23.494;2024-01-27T02:20:40;53701.03;;;-139.68;100.00
10940;BME280;5522;42.696;23.494;2024-01-27T02:23:06;53686.97;;;-139.68;100.00
10940;BME280;5522;42.696;23.494;2024-01-27T02:25:35;53707.06;;;-139.68;100.00
10940;BME280;5522;42.696;23.494;2024-01-27T02:28:02;53707.06;;;-139.68;100.00
10940;BME280;5522;42.696;23.494;2024-01-27T02:30:29;53680.94;;;-139.68;100.00
10940;BME280;5522;42.696;23.494;2024-01-27T02:32:58;53678.91;;;-139.68;100.00
10940;BME280;5522;42.696;23.494;2024-01-27T02:35:25;53713.09;;;-139.68;100.00
10940;BME280;5522;42.696;23.494;2024-01-27T02:37:52;53711.09;;;-139.68;100.00
10940;BME280;5522;42.696;23.494;2024-01-27T02:40:19;53678.91;;;-139.68;100.00
10940;BME280;5522;42.696;23.494;2024-01-27T02:42:47;53695.00;;;-139.68;100.00
10940;BME280;5522;42.696;23.494;2024-01-27T02:45:14;53686.97;;;-139.68;100.00
10940;BME280;5522;42.696;23.494;2024-01-27T02:47:41;53707.06;;;-139.68;100.00
10940;BME280;5522;42.696;23.494;2024-01-27T02:50:09;53723.13;;;-139.68;100.00
10940;BME280;5522;42.696;23.494;2024-01-27T02:52:36;53727.16;;;-139.68;100.00
10940;BME280;5522;42.696;23.494;2024-01-27T02:55:06;53711.09;;;-139.68;100.00
10940;BME280;5522;42.696;23.494;2024-01-27T02:57:33;53676.91;;;-139.68;100.00
10940;BME280;5522;42.696;23.494;2024-01-27T03:00:02;53707.06;;;-139.68;100.00
10940;BME280;5522;42.696;23.494;2024-01-27T03:02:33;53743.25;;;-139.68;100.00
10940;BME280;5522;42.696;23.494;2024-01-27T03:05:00;53729.16;;;-139.68;100.00
10940;BME280;5522;42.696;23.494;2024-01-27T03:07:27;53693.00;;;-139.68;100.00
10940;BME280;5522;42.696;23.494;2024-01-27T03:09:53;53727.16;;;-139.68;100.00
10940;BME280;5522;42.696;23.494;2024-01-27T03:12:20;53735.19;;;-139.68;100.00
10940;BME280;5522;42.696;23.494;2024-01-27T03:14:48;53719.13;;;-139.68;100.00
10940;BME280;5522;42.696;23.494;2024-01-27T03:17:17;53717.13;;;-139.68;100.00
10940;BME280;5522;42.696;23.494;2024-01-27T03:19:44;53711.09;;;-139.68;100.00
10940;BME280;5522;42.696;23.494;2024-01-27T03:22:11;53703.03;;;-139.68;100.00
10940;BME280;5522;42.696;23.494;2024-01-27T03:24:38;53733.19;;;-139.68;100.00
10940;BME280;5522;42.696;23.494;2024-01-27T03:27:05;53690.97;;;-139.68;100.00
10940;BME280;5522;42.696;23.494;2024-01-27T03:29:32;53731.19;;;-139.68;100.00
10940;BME280;5522;42.696;23.494;2024-01-27T03:31:59;53707.06;;;-139.68;100.00
10940;BME280;5522;42.696;23.494;2024-01-27T03:34:27;53749.28;;;-139.68;100.00
10940;BME280;5522;42.696;23.494;2024-01-27T03:36:54;53697.00;;;-139.68;100.00
10940;BME280;5522;42.696;23.494;2024-01-27T03:39:23;53747.25;;;-139.68;100.00
10940;BME280;5522;42.696;23.494;2024-01-27T03:41:50;53751.28;;;-139.68;100.00
10940;BME280;5522;42.696;23.494;2024-01-27T03:44:17;53725.16;;;-139.68;100.00
10940;BME280;5522;42.696;23.494;2024-01-27T03:46:43;53721.13;;;-139.68;100.00
10940;BME280;5522;42.696;23.494;2024-01-27T03:49:10;53707.06;;;-139.68;100.00
10940;BME280;5522;42.696;23.494;2024-01-27T03:51:38;53676.91;;;-139.68;100.00
10940;BME280;5522;42.696;23.494;2024-01-27T03:54:07;53723.13;;;-139.68;100.00
10940;BME280;5522;42.696;23.494;2024-01-27T03:56:34;53721.13;;;-139.68;100.00
10940;BME280;5522;42.696;23.494;2024-01-27T03:59:01;53703.03;;;-139.68;100.00
10940;BME280;5522;42.696;23.494;2024-01-27T04:01:29;53717.13;;;-139.68;100.00
10940;BME280;5522;42.696;23.494;2024-01-27T04:03:55;53759.31;;;-139.68;100.00
10940;BME280;5522;42.696;23.494;2024-01-27T04:06:22;53751.28;;;-139.68;100.00
10940;BME280;5522;42.696;23.494;2024-01-27T04:08:50;53743.25;;;-139.68;100.00
10940;BME280;5522;42.696;23.494;2024-01-27T04:11:21;53753.28;;;-139.68;100.00
10940;BME280;5522;42.696;23.494;2024-01-27T04:13:49;53693.00;;;-139.68;100.00
10940;BME280;5522;42.696;23.494;2024-01-27T04:16:16;53697.00;;;-139.68;100.00
10940;BME280;5522;42.696;23.494;2024-01-27T04:18:43;53715.09;;;-139.68;100.00
10940;BME280;5522;42.696;23.494;2024-01-27T04:21:09;53717.13;;;-139.68;100.00
10940;BME280;5522;42.696;23.494;2024-01-27T04:23:36;53749.28;;;-139.68;100.00
10940;BME280;5522;42.696;23.494;2024-01-27T04:26:04;53711.09;;;-139.68;100.00
10940;BME280;5522;42.696;23.494;2024-01-27T04:28:34;53723.13;;;-139.68;100.00
10940;BME280;5522;42.696;23.494;2024-01-27T04:31:01;53699.03;;;-139.68;100.00
10940;BME280;5522;42.696;23.494;2024-01-27T04:33:28;53729.16;;;-139.68;100.00
10940;BME280;5522;42.696;23.494;2024-01-27T04:35:55;53703.03;;;-139.68;100.00
10940;BME280;5522;42.696;23.494;2024-01-27T04:38:22;53723.13;;;-139.68;100.00
10940;BME280;5522;42.696;23.494;2024-01-27T04:40:50;53688.97;;;-139.68;100.00
10940;BME280;5522;42.696;23.494;2024-01-27T04:43:19;53711.09;;;-139.68;100.00
10940;BME280;5522;42.696;23.494;2024-01-27T04:45:47;53711.09;;;-139.68;100.00
10940;BME280;5522;42.696;23.494;2024-01-27T04:48:14;53755.31;;;-139.68;100.00
10940;BME280;5522;42.696;23.494;2024-01-27T04:50:41;53757.31;;;-139.68;100.00
10940;BME280;5522;42.696;23.494;2024-01-27T04:53:08;53703.03;;;-139.68;100.00
10940;BME280;5522;42.696;23.494;2024-01-27T04:55:34;53707.06;;;-139.68;100.00
10940;BME280;5522;42.696;23.494;2024-01-27T04:58:01;53721.13;;;-139.68;100.00
10940;BME280;5522;42.696;23.494;2024-01-27T05:00:30;53781.44;;;-139.68;100.00
10940;BME280;5522;42.696;23.494;2024-01-27T05:02:56;53729.16;;;-139.68;100.00
10940;BME280;5522;42.696;23.494;2024-01-27T05:05:28;53745.25;;;-139.68;100.00
10940;BME280;5522;42.696;23.494;2024-01-27T05:07:55;53731.19;;;-139.68;100.00
10940;BME280;5522;42.696;23.494;2024-01-27T05:10:22;53707.06;;;-139.68;100.00
10940;BME280;5522;42.696;23.494;2024-01-27T05:12:50;53701.03;;;-139.68;100.00
10940;BME280;5522;42.696;23.494;2024-01-27T05:15:17;53749.28;;;-139.68;100.00
10940;BME280;5522;42.696;23.494;2024-01-27T05:17:46;53695.00;;;-139.68;100.00
10940;BME280;5522;42.696;23.494;2024-01-27T05:20:13;53719.13;;;-139.68;100.00
10940;BME280;5522;42.696;23.494;2024-01-27T05:22:39;53759.31;;;-139.68;100.00
10940;BME280;5522;42.696;23.494;2024-01-27T05:25:07;53743.25;;;-139.68;100.00
10940;BME280;5522;42.696;23.494;2024-01-27T05:27:36;53747.25;;;-139.68;100.00
10940;BME280;5522;42.696;23.494;2024-01-27T05:30:04;53727.16;;;-139.68;100.00
10940;BME280;5522;42.696;23.494;2024-01-27T05:32:31;53711.09;;;-139.68;100.00
10940;BME280;5522;42.696;23.494;2024-01-27T05:34:59;53733.19;;;-139.68;100.00
10940;BME280;5522;42.696;23.494;2024-01-27T05:37:26;53715.09;;;-139.68;100.00
10940;BME280;5522;42.696;23.494;2024-01-27T05:39:53;53727.16;;;-139.68;100.00
10940;BME280;5522;42.696;23.494;2024-01-27T05:42:20;53715.09;;;-139.68;100.00
10940;BME280;5522;42.696;23.494;2024-01-27T05:44:46;53743.25;;;-139.68;100.00
10940;BME280;5522;42.696;23.494;2024-01-27T05:47:13;53713.09;;;-139.68;100.00
10940;BME280;5522;42.696;23.494;2024-01-27T05:49:41;53703.03;;;-139.68;100.00
10940;BME280;5522;42.696;23.494;2024-01-27T05:52:09;53747.25;;;-139.68;100.00
10940;BME280;5522;42.696;23.494;2024-01-27T05:54:36;53741.22;;;-139.68;100.00
10940;BME280;5522;42.696;23.494;2024-01-27T05:57:03;53703.03;;;-139.68;100.00
10940;BME280;5522;42.696;23.494;2024-01-27T05:59:30;53735.19;;;-139.68;100.00
10940;BME280;5522;42.696;23.494;2024-01-27T06:01:57;53737.22;;;-139.68;100.00
10940;BME280;5522;42.696;23.494;2024-01-27T06:04:24;53751.28;;;-139.68;100.00
10940;BME280;5522;42.696;23.494;2024-01-27T06:06:51;53739.22;;;-139.68;100.00
10940;BME280;5522;42.696;23.494;2024-01-27T06:09:19;53759.31;;;-139.68;100.00
10940;BME280;5522;42.696;23.494;2024-01-27T06:11:47;53741.22;;;-139.68;100.00
10940;BME280;5522;42.696;23.494;2024-01-27T06:14:13;53709.06;;;-139.68;100.00
10940;BME280;5522;42.696;23.494;2024-01-27T06:16:40;53727.16;;;-139.68;100.00
10940;BME280;5522;42.696;23.494;2024-01-27T06:19:07;53727.16;;;-139.68;100.00
10940;BME280;5522;42.696;23.494;2024-01-27T06:21:35;53743.25;;;-139.68;100.00
10940;BME280;5522;42.696;23.494;2024-01-27T06:24:01;53793.50;;;-139.68;100.00
10940;BME280;5522;42.696;23.494;2024-01-27T06:26:30;53727.16;;;-139.68;100.00
10940;BME280;5522;42.696;23.494;2024-01-27T06:28:56;53707.06;;;-139.68;100.00
10940;BME280;5522;42.696;23.494;2024-01-27T06:31:23;53729.16;;;-139.68;100.00
10940;BME280;5522;42.696;23.494;2024-01-27T06:33:50;53755.31;;;-139.68;100.00
10940;BME280;5522;42.696;23.494;2024-01-27T06:36:17;53731.19;;;-139.68;100.00
10940;BME280;5522;42.696;23.494;2024-01-27T06:38:43;53727.16;;;-139.68;100.00
10940;BME280;5522;42.696;23.494;2024-01-27T06:41:10;53775.41;;;-139.68;100.00
10940;BME280;5522;42.696;23.494;2024-01-27T06:43:38;53731.19;;;-139.68;100.00
10940;BME280;5522;42.696;23.494;2024-01-27T06:46:05;53717.13;;;-139.68;100.00
10940;BME280;5522;42.696;23.494;2024-01-27T06:48:32;53759.31;;;-139.68;100.00
10940;BME280;5522;42.696;23.494;2024-01-27T06:50:59;53695.00;;;-139.68;100.00
10940;BME280;5522;42.696;23.494;2024-01-27T06:53:26;53775.41;;;-139.68;100.00
10940;BME280;5522;42.696;23.494;2024-01-27T06:55:52;53773.41;;;-139.68;100.00
10940;BME280;5522;42.696;23.494;2024-01-27T06:58:19;53743.25;;;-139.68;100.00
10940;BME280;5522;42.696;23.494;2024-01-27T07:00:48;53729.16;;;-139.68;100.00
10940;BME280;5522;42.696;23.494;2024-01-27T07:03:15;53741.22;;;-139.68;100.00
10940;BME280;5522;42.696;23.494;2024-01-27T07:05:41;53739.22;;;-139.68;100.00
10940;BME280;5522;42.696;23.494;2024-01-27T07:08:08;53759.31;;;-139.68;100.00
10940;BME280;5522;42.696;23.494;2024-01-27T07:10:36;53727.16;;;-139.68;100.00
10940;BME280;5522;42.696;23.494;2024-01-27T07:13:03;53727.16;;;-139.68;100.00
10940;BME280;5522;42.696;23.494;2024-01-27T07:15:31;53751.28;;;-139.68;100.00
10940;BME280;5522;42.696;23.494;2024-01-27T07:18:00;53731.19;;;-139.68;100.00
10940;BME280;5522;42.696;23.494;2024-01-27T07:20:26;53731.19;;;-139.68;100.00
10940;BME280;5522;42.696;23.494;2024-01-27T07:22:54;53747.25;;;-139.68;100.00
10940;BME280;5522;42.696;23.494;2024-01-27T07:25:21;53731.19;;;-139.68;100.00
10940;BME280;5522;42.696;23.494;2024-01-27T07:27:48;53741.22;;;-139.68;100.00
10940;BME280;5522;42.696;23.494;2024-01-27T07:30:15;53715.09;;;-139.68;100.00
10940;BME280;5522;42.696;23.494;2024-01-27T07:32:42;53755.31;;;-139.68;100.00
10940;BME280;5522;42.696;23.494;2024-01-27T07:35:11;53731.19;;;-139.68;100.00
10940;BME280;5522;42.696;23.494;2024-01-27T07:37:38;53771.38;;;-139.68;100.00
10940;BME280;5522;42.696;23.494;2024-01-27T07:40:06;53743.25;;;-139.68;100.00
10940;BME280;5522;42.696;23.494;2024-01-27T07:42:36;53743.25;;;-139.68;100.00
10940;BME280;5522;42.696;23.494;2024-01-27T07:45:04;53735.19;;;-139.68;100.00
10940;BME280;5522;42.696;23.494;2024-01-27T07:47:31;53729.16;;;-139.68;100.00
10940;BME280;5522;42.696;23.494;2024-01-27T07:49:58;53684.94;;;-139.68;100.00
10940;BME280;5522;42.696;23.494;2024-01-27T07:52:26;53799.53;;;-139.68;100.00
10940;BME280;5522;42.696;23.494;2024-01-27T07:54:53;53735.19;;;-139.68;100.00
10940;BME280;5522;42.696;23.494;2024-01-27T07:57:20;53727.16;;;-139.68;100.00
10940;BME280;5522;42.696;23.494;2024-01-27T07:59:47;53747.25;;;-139.68;100.00
10940;BME280;5522;42.696;23.494;2024-01-27T08:02:14;53777.41;;;-139.68;100.00
10940;BME280;5522;42.696;23.494;2024-01-27T08:04:41;53751.28;;;-139.68;100.00
10940;BME280;5522;42.696;23.494;2024-01-27T08:07:08;53767.38;;;-139.68;100.00
10940;BME280;5522;42.696;23.494;2024-01-27T08:09:37;53757.31;;;-139.68;100.00
10940;BME280;5522;42.696;23.494;2024-01-27T08:12:05;53711.09;;;-139.68;100.00
10940;BME280;5522;42.696;23.494;2024-01-27T08:14:35;53757.31;;;-139.68;100.00
10940;BME280;5522;42.696;23.494;2024-01-27T08:17:02;53735.19;;;-139.68;100.00
10940;BME280;5522;42.696;23.494;2024-01-27T08:19:29;53751.28;;;-139.68;100.00
10940;BME280;5522;42.696;23.494;2024-01-27T08:21:56;53775.41;;;-139.68;100.00
10940;BME280;5522;42.696;23.494;2024-01-27T08:24:24;53743.25;;;-139.68;100.00
10940;BME280;5522;42.696;23.494;2024-01-27T08:26:52;53823.66;;;-139.68;100.00
10940;BME280;5522;42.696;23.494;2024-01-27T08:29:19;53777.41;;;-139.68;100.00
10940;BME280;5522;42.696;23.494;2024-01-27T08:31:46;53791.50;;;-139.68;95.83
10940;BME280;5522;42.696;23.494;2024-01-27T08:34:13;53805.56;;;-139.68;88.19
10940;BME280;5522;42.696;23.494;2024-01-27T08:36:40;53799.53;;;-139.68;85.06
10940;BME280;5522;42.696;23.494;2024-01-27T08:39:07;53807.56;;;-139.68;93.04
10940;BME280;5522;42.696;23.494;2024-01-27T08:41:34;53757.31;;;-139.68;100.00
10940;BME280;5522;42.696;23.494;2024-01-27T08:44:03;53785.47;;;-139.68;100.00
10940;BME280;5522;42.696;23.494;2024-01-27T08:46:30;53801.53;;;-139.68;100.00
10940;BME280;5522;42.696;23.494;2024-01-27T08:48:57;53783.44;;;-139.68;96.55
10940;BME280;5522;42.696;23.494;2024-01-27T08:51:24;53803.56;;;-139.68;81.79
10940;BME280;5522;42.696;23.494;2024-01-27T08:53:52;53819.63;;;-139.68;68.62
10940;BME280;5522;42.696;23.494;2024-01-27T08:56:19;53845.78;;;-139.68;58.51
10940;BME280;5522;42.696;23.494;2024-01-27T08:58:46;53827.69;;;-139.68;58.06
10940;BME280;5522;42.696;23.494;2024-01-27T09:01:15;53861.84;;;-139.68;63.27
10940;BME280;5522;42.696;23.494;2024-01-27T09:03:42;53831.69;;;-139.68;54.23
10940;BME280;5522;42.696;23.494;2024-01-27T09:06:12;53825.66;;;-139.68;63.01
10940;BME280;5522;42.696;23.494;2024-01-27T09:08:39;53839.75;;;-139.68;71.24
10940;BME280;5522;42.696;23.494;2024-01-27T09:11:06;53807.56;;;-139.68;66.95
10940;BME280;5522;42.696;23.494;2024-01-27T09:13:34;53861.84;;;-139.68;59.63
10940;BME280;5522;42.696;23.494;2024-01-27T09:16:01;53805.56;;;-139.68;54.58
10940;BME280;5522;42.696;23.494;2024-01-27T09:18:29;53855.81;;;-139.68;56.65
10940;BME280;5522;42.696;23.494;2024-01-27T09:20:56;53813.59;;;-139.68;57.97
10940;BME280;5522;42.696;23.494;2024-01-27T09:23:23;53795.50;;;-139.68;65.65
10940;BME280;5522;42.696;23.494;2024-01-27T09:25:50;53823.66;;;-139.68;76.28
10940;BME280;5522;42.696;23.494;2024-01-27T09:28:17;53839.75;;;-139.68;87.30
10940;BME280;5522;42.696;23.494;2024-01-27T09:30:44;53837.72;;;-139.68;92.53
10940;BME280;5522;42.696;23.494;2024-01-27T09:33:11;53823.66;;;-139.68;92.79
10940;BME280;5522;42.696;23.494;2024-01-27T09:35:39;53821.66;;;-139.68;79.88
10940;BME280;5522;42.696;23.494;2024-01-27T09:38:06;53823.66;;;-139.68;64.24
10940;BME280;5522;42.696;23.494;2024-01-27T09:40:35;53863.88;;;-139.68;54.97
10940;BME280;5522;42.696;23.494;2024-01-27T09:43:02;53803.56;;;-139.68;58.38
10940;BME280;5522;42.696;23.494;2024-01-27T09:45:29;53809.59;;;-139.68;70.54
10940;BME280;5522;42.696;23.494;2024-01-27T09:48:00;53847.78;;;-139.68;80.06
10940;BME280;5522;42.696;23.494;2024-01-27T09:50:27;53817.63;;;-139.68;86.90
10940;BME280;5522;42.696;23.494;2024-01-27T09:52:58;53823.66;;;-139.68;92.41
10940;BME280;5522;42.696;23.494;2024-01-27T09:55:26;53835.72;;;-139.68;95.00
10940;BME280;5522;42.696;23.494;2024-01-27T09:57:58;53817.63;;;-139.68;96.82
10940;BME280;5522;42.696;23.494;2024-01-27T10:00:28;53819.63;;;-139.68;99.07
10940;BME280;5522;42.696;23.494;2024-01-27T10:02:59;53791.50;;;-139.68;99.97
10940;BME280;5522;42.696;23.494;2024-01-27T10:05:27;53823.66;;;-139.68;100.00
10940;BME280;5522;42.696;23.494;2024-01-27T10:07:59;53821.66;;;-139.68;100.00
10940;BME280;5522;42.696;23.494;2024-01-27T10:10:26;53799.53;;;-139.68;100.00
10940;BME280;5522;42.696;23.494;2024-01-27T10:12:58;53819.63;;;-139.68;100.00
10940;BME280;5522;42.696;23.494;2024-01-27T10:15:27;53835.72;;;-139.68;100.00
10940;BME280;5522;42.696;23.494;2024-01-27T10:18:06;53781.44;;;-139.68;100.00
10940;BME280;5522;42.696;23.494;2024-01-27T10:20:36;53833.72;;;-139.68;100.00
10940;BME280;5522;42.696;23.494;2024-01-27T10:23:12;53793.50;;;-139.68;100.00
10940;BME280;5522;42.696;23.494;2024-01-27T10:25:43;53811.59;;;-139.68;100.00
10940;BME280;5522;42.696;23.494;2024-01-27T10:28:18;53819.63;;;-139.68;100.00
10940;BME280;5522;42.696;23.494;2024-01-27T10:30:48;53825.66;;;-139.68;100.00
10940;BME280;5522;42.696;23.494;2024-01-27T10:33:15;53813.59;;;-139.68;100.00
10940;BME280;5522;42.696;23.494;2024-01-27T10:35:59;53807.56;;;-139.68;100.00
10940;BME280;5522;42.696;23.494;2024-01-27T10:38:37;53833.72;;;-139.68;100.00
10940;BME280;5522;42.696;23.494;2024-01-27T10:41:10;53799.53;;;-139.68;100.00
10940;BME280;5522;42.696;23.494;2024-01-27T10:43:38;53811.59;;;-139.68;100.00
10940;BME280;5522;42.696;23.494;2024-01-27T10:46:08;53827.69;;;-139.68;100.00
10940;BME280;5522;42.696;23.494;2024-01-27T10:48:39;53783.44;;;-139.68;100.00
10940;BME280;5522;42.696;23.494;2024-01-27T10:51:09;53833.72;;;-139.68;100.00
10940;BME280;5522;42.696;23.494;2024-01-27T10:53:49;53779.44;;;-139.68;100.00
10940;BME280;5522;42.696;23.494;2024-01-27T10:56:31;53815.63;;;-139.68;100.00
10940;BME280;5522;42.696;23.494;2024-01-27T10:59:23;53807.56;;;-139.68;100.00
10940;BME280;5522;42.696;23.494;2024-01-27T11:01:52;53819.63;;;-139.68;100.00
10940;BME280;5522;42.696;23.494;2024-01-27T11:04:24;53815.63;;;-139.68;100.00
10940;BME280;5522;42.696;23.494;2024-01-27T11:06:53;53813.59;;;-139.68;100.00
10940;BME280;5522;42.696;23.494;2024-01-27T11:09:24;53791.50;;;-139.68;100.00
10940;BME280;5522;42.696;23.494;2024-01-27T11:11:51;53807.56;;;-139.68;100.00
10940;BME280;5522;42.696;23.494;2024-01-27T11:14:21;53795.50;;;-139.68;100.00
10940;BME280;5522;42.696;23.494;2024-01-27T11:16:55;53815.63;;;-139.68;100.00
10940;BME280;5522;42.696;23.494;2024-01-27T11:19:22;53811.59;;;-139.68;100.00
10940;BME280;5522;42.696;23.494;2024-01-27T11:22:01;53799.53;;;-139.68;100.00
10940;BME280;5522;42.696;23.494;2024-01-27T11:24:32;53765.34;;;-139.68;100.00
10940;BME280;5522;42.696;23.494;2024-01-27T11:27:03;53809.59;;;-139.68;100.00
10940;BME280;5522;42.696;23.494;2024-01-27T11:29:30;53797.53;;;-139.68;100.00
10940;BME280;5522;42.696;23.494;2024-01-27T11:32:02;53823.66;;;-139.68;100.00
10940;BME280;5522;42.696;23.494;2024-01-27T11:34:41;53835.72;;;-139.68;100.00
10940;BME280;5522;42.696;23.494;2024-01-27T11:37:12;53807.56;;;-139.68;100.00
10940;BME280;5522;42.696;23.494;2024-01-27T11:39:41;53749.28;;;-139.68;100.00
10940;BME280;5522;42.696;23.494;2024-01-27T11:42:12;53813.59;;;-139.68;100.00
10940;BME280;5522;42.696;23.494;2024-01-27T11:44:42;53803.56;;;-139.68;100.00
10940;BME280;5522;42.696;23.494;2024-01-27T11:47:14;53777.41;;;-139.68;100.00
10940;BME280;5522;42.696;23.494;2024-01-27T11:49:42;53809.59;;;-139.68;100.00
10940;BME280;5522;42.696;23.494;2024-01-27T11:52:11;53825.66;;;-139.68;100.00
10940;BME280;5522;42.696;23.494;2024-01-27T11:54:38;53845.78;;;-139.68;100.00
10940;BME280;5522;42.696;23.494;2024-01-27T11:57:21;53795.50;;;-139.68;100.00
10940;BME280;5522;42.696;23.494;2024-01-27T11:59:50;53809.59;;;-139.68;100.00
10940;BME280;5522;42.696;23.494;2024-01-27T12:02:20;53835.72;;;-139.68;100.00
10940;BME280;5522;42.696;23.494;2024-01-27T12:04:52;53815.63;;;-139.68;100.00
10940;BME280;5522;42.696;23.494;2024-01-27T12:07:19;53807.56;;;-139.68;100.00
10940;BME280;5522;42.696;23.494;2024-01-27T12:09:48;53803.56;;;-139.68;100.00
10940;BME280;5522;42.696;23.494;2024-01-27T12:12:17;53759.31;;;-139.68;100.00
10940;BME280;5522;42.696;23.494;2024-01-27T12:14:50;53831.69;;;-139.68;100.00
10940;BME280;5522;42.696;23.494;2024-01-27T12:17:22;53803.56;;;-139.68;100.00
10940;BME280;5522;42.696;23.494;2024-01-27T12:20:00;53779.44;;;-139.68;100.00
10940;BME280;5522;42.696;23.494;2024-01-27T12:22:29;53809.59;;;-139.68;100.00
10940;BME280;5522;42.696;23.494;2024-01-27T12:25:07;53793.50;;;-139.68;100.00
10940;BME280;5522;42.696;23.494;2024-01-27T12:27:42;53795.50;;;-139.68;100.00
10940;BME280;5522;42.696;23.494;2024-01-27T12:30:13;53791.50;;;-139.68;100.00
10940;BME280;5522;42.696;23.494;2024-01-27T12:32:41;53783.44;;;-139.68;100.00
10940;BME280;5522;42.696;23.494;2024-01-27T12:35:10;53791.50;;;-139.68;100.00
10940;BME280;5522;42.696;23.494;2024-01-27T12:37:38;53831.69;;;-139.68;100.00
10940;BME280;5522;42.696;23.494;2024-01-27T12:40:20;53795.50;;;-139.68;100.00
10940;BME280;5522;42.696;23.494;2024-01-27T12:42:51;53805.56;;;-139.68;100.00